createdAt,value
2023-03-04T00:02:10.588Z,26.52
2023-03-04T00:07:16.730Z,26.35
2023-03-04T00:12:18.903Z,22.60
2023-03-04T00:17:20.816Z,20.83
2023-03-04T00:22:22.801Z,21.83
2023-03-04T00:27:24.607Z,21.45
2023-03-04T00:32:26.527Z,21.70
2023-03-04T00:37:28.250Z,22.05
2023-03-04T00:42:30.070Z,23.38
2023-03-04T00:47:32.025Z,21.90
2023-03-04T00:52:34.198Z,20.15
2023-03-04T00:57:36.270Z,22.23
2023-03-04T01:02:38.357Z,20.75
2023-03-04T01:07:40.193Z,22.27
2023-03-04T01:12:43.233Z,22.13
2023-03-04T01:17:45.921Z,22.73
2023-03-04T01:22:48.109Z,21.73
2023-03-04T01:27:50.154Z,21.67
2023-03-04T01:32:52.161Z,20.73
2023-03-04T01:37:54.165Z,20.90
2023-03-04T01:42:56.006Z,21.73
2023-03-04T01:47:58.126Z,20.15
2023-03-04T01:53:01.239Z,21.17
2023-03-04T01:58:05.922Z,20.10
2023-03-04T02:03:12.594Z,21.65
2023-03-04T02:08:15.661Z,20.48
2023-03-04T02:13:18.288Z,19.08
2023-03-04T02:18:24.619Z,19.60
2023-03-04T02:24:06.479Z,19.38
2023-03-04T02:29:11.411Z,20.30
2023-03-04T02:34:22.492Z,20.40
2023-03-04T02:39:35.348Z,19.73
2023-03-04T02:44:43.749Z,20.35
2023-03-04T02:49:46.186Z,20.73
2023-03-04T02:54:48.215Z,20.50
2023-03-04T02:59:50.498Z,18.77
2023-03-04T03:04:52.272Z,16.65
2023-03-04T03:09:53.985Z,14.55
2023-03-04T03:14:55.965Z,16.55
2023-03-04T03:19:58.107Z,16.90
2023-03-04T03:24:59.814Z,15.95
2023-03-04T03:30:01.809Z,14.32
2023-03-04T03:35:03.919Z,17.13
2023-03-04T03:40:06.261Z,15.45
2023-03-04T03:45:08.606Z,14.15
2023-03-04T03:50:10.964Z,15.07
2023-03-04T03:55:12.884Z,14.90
2023-03-04T04:00:16.670Z,15.70
2023-03-04T04:05:18.835Z,15.50
2023-03-04T04:10:21.635Z,16.33
2023-03-04T04:15:23.697Z,15.48
2023-03-04T04:20:26.308Z,16.85
2023-03-04T04:25:28.233Z,17.83
2023-03-04T04:30:32.107Z,16.98
2023-03-04T04:35:36.579Z,15.45
2023-03-04T04:40:38.618Z,16.75
2023-03-04T04:45:40.626Z,16.27
2023-03-04T04:50:42.308Z,14.32
2023-03-04T04:55:44.626Z,14.00
2023-03-04T05:00:46.540Z,15.00
2023-03-04T05:05:49.204Z,15.82
2023-03-04T05:10:51.744Z,16.13
2023-03-04T05:15:55.083Z,13.55
2023-03-04T05:20:59.953Z,14.73
2023-03-04T05:26:02.970Z,13.93
2023-03-04T05:31:04.924Z,18.15
2023-03-04T05:36:08.334Z,15.98
2023-03-04T05:41:10.658Z,17.52
2023-03-04T05:46:16.472Z,16.92
2023-03-04T05:51:19.815Z,18.08
2023-03-04T05:56:22.979Z,24.67
2023-03-04T06:01:25.533Z,25.38
2023-03-04T06:06:27.557Z,22.00
2023-03-04T06:11:29.584Z,19.75
2023-03-04T06:16:32.050Z,17.80
2023-03-04T06:21:33.958Z,17.63
2023-03-04T06:26:35.787Z,23.08
2023-03-04T06:31:37.753Z,27.92
2023-03-04T06:36:39.575Z,25.65
2023-03-04T06:41:41.403Z,24.58
2023-03-04T06:46:43.335Z,23.85
2023-03-04T06:51:45.440Z,21.90
2023-03-04T06:56:47.347Z,20.45
2023-03-04T07:01:49.125Z,24.77
2023-03-04T07:06:51.608Z,23.60
2023-03-04T07:11:53.344Z,23.67
2023-03-04T07:16:55.588Z,22.35
2023-03-04T07:21:57.690Z,20.15
2023-03-04T07:26:59.497Z,20.20
2023-03-04T07:32:01.584Z,20.90
2023-03-04T07:37:03.882Z,20.55
2023-03-04T07:42:06.013Z,23.15
2023-03-04T07:47:07.785Z,19.00
2023-03-04T07:52:11.358Z,17.60
2023-03-04T07:57:13.088Z,17.10
2023-03-04T08:02:15.870Z,16.83
2023-03-04T08:07:17.767Z,16.23
2023-03-04T08:12:19.827Z,15.15
2023-03-04T08:17:22.105Z,15.38
2023-03-04T08:22:23.924Z,15.93
2023-03-04T08:27:26.228Z,13.88
2023-03-04T08:32:28.368Z,14.25
2023-03-04T08:37:30.499Z,13.55
2023-03-04T08:42:32.783Z,14.40
2023-03-04T08:47:34.581Z,13.40
2023-03-04T08:52:36.387Z,14.52
2023-03-04T08:57:38.196Z,15.50
2023-03-04T09:02:39.944Z,15.02
2023-03-04T09:07:42.204Z,14.60
2023-03-04T09:12:44.021Z,13.98
2023-03-04T09:17:45.905Z,15.85
2023-03-04T09:22:47.777Z,15.68
2023-03-04T09:38:03.947Z,15.73
2023-03-04T09:43:11.786Z,17.52
2023-03-04T09:48:18.870Z,14.63
2023-03-04T09:53:34.433Z,14.40
2023-03-04T09:59:00.089Z,14.95
2023-03-04T10:04:19.341Z,14.98
2023-03-04T10:09:28.353Z,15.05
2023-03-04T10:14:47.032Z,13.43
2023-03-04T10:20:04.394Z,15.15
2023-03-04T10:25:30.555Z,21.40
2023-03-04T10:31:03.164Z,16.50
2023-03-04T10:36:28.104Z,16.52
2023-03-04T10:41:32.070Z,15.27
2023-03-04T10:46:37.568Z,16.13
2023-03-04T10:51:50.274Z,16.88
2023-03-04T10:57:17.143Z,13.90
2023-03-04T11:02:27.986Z,16.50
2023-03-04T11:07:31.531Z,16.20
2023-03-04T11:12:45.301Z,17.15
2023-03-04T11:17:53.641Z,16.25
2023-03-04T11:23:00.547Z,15.93
2023-03-04T11:28:18.694Z,17.48
2023-03-04T11:33:42.305Z,18.63
2023-03-04T11:38:50.492Z,17.75
2023-03-04T11:43:52.604Z,17.77
2023-03-04T11:49:05.151Z,18.42
2023-03-04T11:54:07.512Z,20.00
2023-03-04T11:59:29.710Z,18.80
2023-03-04T12:04:32.180Z,17.73
2023-03-04T12:09:49.540Z,16.17
2023-03-04T12:15:08.273Z,20.52
2023-03-04T12:20:25.652Z,18.02
2023-03-04T12:25:52.347Z,17.83
2023-03-04T12:31:07.063Z,16.15
2023-03-04T12:36:27.577Z,17.58
2023-03-04T12:41:35.390Z,16.83
2023-03-04T12:47:07.212Z,16.52
2023-03-04T12:52:32.479Z,18.27
2023-03-04T12:57:35.539Z,16.60
2023-03-04T13:02:51.885Z,17.48
2023-03-04T13:08:17.896Z,17.27
2023-03-04T13:13:35.035Z,17.35
2023-03-04T13:18:39.640Z,16.55
2023-03-04T13:23:59.282Z,17.23
2023-03-04T13:29:19.450Z,17.27
2023-03-04T13:34:50.480Z,17.02
2023-03-04T13:40:32.730Z,16.92
2023-03-04T13:45:39.249Z,16.73
2023-03-04T13:50:46.341Z,17.83
2023-03-04T13:56:07.340Z,19.05
2023-03-04T14:01:28.551Z,16.33
2023-03-04T14:06:31.774Z,21.13
2023-03-04T14:11:41.934Z,17.75
2023-03-04T14:16:54.955Z,18.77
2023-03-04T14:21:57.879Z,17.75
2023-03-04T14:27:14.451Z,19.50
2023-03-04T14:32:16.339Z,19.05
2023-03-04T14:37:33.432Z,18.15
2023-03-04T14:42:41.376Z,20.20
2023-03-04T14:47:47.422Z,19.38
2023-03-04T14:52:52.069Z,19.20
2023-03-04T14:58:08.919Z,20.10
2023-03-04T15:03:25.544Z,19.45
2023-03-04T15:08:36.169Z,20.35
2023-03-04T15:13:42.282Z,20.03
2023-03-04T15:19:06.069Z,19.13
2023-03-04T15:24:11.941Z,18.77
2023-03-04T15:29:15.712Z,18.55
2023-03-04T15:34:20.274Z,18.52
2023-03-04T15:39:23.468Z,19.80
2023-03-04T15:44:25.290Z,19.77
2023-03-04T15:49:27.094Z,20.02
2023-03-04T15:54:29.581Z,19.63
2023-03-04T15:59:31.730Z,17.48
2023-03-04T16:04:33.989Z,17.63
2023-03-04T16:09:36.640Z,19.15
2023-03-04T16:14:39.042Z,20.48
2023-03-04T16:19:41.197Z,19.02
2023-03-04T16:24:43.220Z,32.25
2023-03-04T16:29:45.102Z,38.85
2023-03-04T16:34:51.113Z,58.22
2023-03-04T16:39:53.125Z,22.83
2023-03-04T16:44:56.363Z,25.45
2023-03-04T16:50:01.013Z,33.80
2023-03-04T16:55:03.778Z,23.23
2023-03-04T17:00:08.269Z,40.22
2023-03-04T17:05:31.407Z,24.92
2023-03-04T17:10:33.654Z,20.75
2023-03-04T17:15:35.956Z,28.02
2023-03-04T17:20:38.615Z,23.08
2023-03-04T17:25:41.046Z,19.77
2023-03-04T17:30:44.673Z,21.27
2023-03-04T17:35:47.820Z,19.88
2023-03-04T17:40:50.256Z,22.30
2023-03-04T17:45:52.421Z,21.67
2023-03-04T17:50:55.633Z,21.95
2023-03-04T17:56:00.969Z,20.65
2023-03-04T18:01:13.946Z,20.13
2023-03-04T18:06:17.416Z,18.63
2023-03-04T18:11:24.381Z,19.88
2023-03-04T18:16:29.118Z,19.17
2023-03-04T18:21:31.842Z,20.15
2023-03-04T18:26:33.954Z,21.45
2023-03-04T18:31:37.199Z,21.05
2023-03-04T18:36:39.257Z,18.75
2023-03-04T18:41:41.250Z,20.23
2023-03-04T18:46:47.027Z,23.98
2023-03-04T18:51:48.853Z,22.00
2023-03-04T18:56:57.482Z,19.70
2023-03-04T19:02:03.959Z,19.83
2023-03-04T19:07:06.114Z,20.27
2023-03-04T19:12:08.605Z,20.42
2023-03-04T19:17:10.970Z,21.30
2023-03-04T19:22:13.077Z,20.80
2023-03-04T19:27:15.120Z,21.27
2023-03-04T19:32:17.594Z,21.38
2023-03-04T19:37:19.757Z,22.23
2023-03-04T19:42:21.912Z,19.17
2023-03-04T19:47:23.998Z,22.20
2023-03-04T19:52:26.185Z,21.25
2023-03-04T19:57:28.670Z,19.35
2023-03-04T20:02:31.553Z,21.73
2023-03-04T20:07:33.680Z,19.35
2023-03-04T20:12:37.137Z,21.65
2023-03-04T20:17:39.001Z,21.42
2023-03-04T20:22:41.016Z,22.08
2023-03-04T20:27:43.865Z,20.13
2023-03-04T20:32:45.719Z,21.15
2023-03-04T20:37:47.766Z,20.88
2023-03-04T20:42:49.644Z,23.35
2023-03-04T20:47:51.519Z,24.10
2023-03-04T20:52:53.524Z,21.33
2023-03-04T20:57:55.311Z,21.63
2023-03-04T21:02:57.725Z,22.08
2023-03-04T21:08:00.196Z,21.95
2023-03-04T21:13:02.186Z,24.88
2023-03-04T21:18:04.431Z,31.38
2023-03-04T21:23:06.379Z,24.48
2023-03-04T21:28:08.517Z,23.83
2023-03-04T21:33:19.347Z,22.15
2023-03-04T21:38:21.973Z,22.92
2023-03-04T21:43:24.210Z,21.40
2023-03-04T21:48:27.068Z,21.50
2023-03-04T21:53:29.600Z,21.35
2023-03-04T21:58:35.333Z,20.75
2023-03-04T22:03:38.038Z,25.88
2023-03-04T22:08:40.291Z,23.38
2023-03-04T22:13:42.113Z,23.25
2023-03-04T22:18:44.165Z,21.25
2023-03-04T22:23:46.843Z,23.25
2023-03-04T22:28:49.040Z,23.90
2023-03-04T22:33:50.798Z,23.30
2023-03-04T22:38:53.023Z,22.83
2023-03-04T22:43:54.996Z,22.90
2023-03-04T22:48:59.757Z,22.85
2023-03-04T22:54:01.663Z,23.75
2023-03-04T22:59:04.053Z,24.38
2023-03-04T23:04:06.127Z,24.52
2023-03-04T23:09:08.539Z,23.92
2023-03-04T23:14:12.059Z,24.42
2023-03-04T23:19:17.490Z,23.83
2023-03-04T23:24:20.247Z,25.80
2023-03-04T23:29:22.620Z,24.58
2023-03-04T23:34:24.540Z,24.83
2023-03-04T23:39:26.683Z,25.98
2023-03-04T23:44:28.558Z,24.25
2023-03-04T23:49:31.127Z,23.73
2023-03-04T23:54:32.940Z,25.60
2023-03-04T23:59:35.344Z,25.67
